createdAt,value
2017-11-24T00:00:44.713Z,60.31
2017-11-24T00:01:44.709Z,60.60
2017-11-24T00:02:44.707Z,60.60
2017-11-24T00:03:44.703Z,60.60
2017-11-24T00:04:44.701Z,60.60
2017-11-24T00:05:44.699Z,60.31
2017-11-24T00:06:44.695Z,60.50
2017-11-24T00:07:44.691Z,60.60
2017-11-24T00:08:44.687Z,60.50
2017-11-24T00:09:44.733Z,60.41
2017-11-24T00:10:44.681Z,60.41
2017-11-24T00:11:44.678Z,60.50
2017-11-24T00:12:44.674Z,59.36
2017-11-24T00:13:44.671Z,59.55
2017-11-24T00:14:44.667Z,59.65
2017-11-24T00:15:44.679Z,59.55
2017-11-24T00:16:44.660Z,59.84
2017-11-24T00:17:44.657Z,59.65
2017-11-24T00:18:44.655Z,58.98
2017-11-24T00:19:44.651Z,59.17
2017-11-24T00:20:44.648Z,58.89
2017-11-24T00:21:44.644Z,59.17
2017-11-24T00:22:44.642Z,59.39
2017-11-24T00:23:44.638Z,59.27
2017-11-24T00:24:44.635Z,58.89
2017-11-24T00:25:44.634Z,58.83
2017-11-24T00:26:44.628Z,59.11
2017-11-24T00:27:44.626Z,58.51
2017-11-24T00:28:44.622Z,58.73
2017-11-24T00:29:44.618Z,58.35
2017-11-24T00:30:44.616Z,57.97
2017-11-24T00:31:44.613Z,58.06
2017-11-24T00:32:44.609Z,58.16
2017-11-24T00:33:44.664Z,58.63
2017-11-24T00:34:44.605Z,58.35
2017-11-24T00:35:44.602Z,58.16
2017-11-24T00:36:44.598Z,58.16
2017-11-24T00:37:44.594Z,58.35
2017-11-24T00:38:44.592Z,58.22
2017-11-24T00:39:44.588Z,59.08
2017-11-24T00:40:44.587Z,59.93
2017-11-24T00:41:44.586Z,59.55
2017-11-24T00:42:44.597Z,59.55
2017-11-24T00:43:44.576Z,59.65
2017-11-24T00:44:44.580Z,59.55
2017-11-24T00:45:44.570Z,59.17
2017-11-24T00:46:44.566Z,59.17
2017-11-24T00:47:44.614Z,58.32
2017-11-24T00:48:44.561Z,58.13
2017-11-24T00:49:44.559Z,58.32
2017-11-24T00:50:44.553Z,58.32
2017-11-24T00:51:44.551Z,58.13
2017-11-24T00:52:44.548Z,58.22
2017-11-24T00:53:44.545Z,59.20
2017-11-24T00:54:44.542Z,58.54
2017-11-24T00:55:44.538Z,59.17
2017-11-24T00:56:44.538Z,58.61
2017-11-24T00:57:44.532Z,58.61
2017-11-24T00:58:44.529Z,58.80
2017-11-24T00:59:44.525Z,58.80
2017-11-24T01:00:44.524Z,58.89
2017-11-24T01:01:44.518Z,59.11
2017-11-24T01:02:44.516Z,58.51
2017-11-24T01:03:44.519Z,58.70
2017-11-24T01:04:44.510Z,58.41
2017-11-24T01:05:44.507Z,58.32
2017-11-24T01:06:44.504Z,58.22
2017-11-24T01:07:44.502Z,58.32
2017-11-24T01:08:44.497Z,58.70
2017-11-24T01:09:44.493Z,58.44
2017-11-24T01:10:44.491Z,58.32
2017-11-24T01:11:44.488Z,58.61
2017-11-24T01:12:44.484Z,58.22
2017-11-24T01:13:44.481Z,58.80
2017-11-24T01:14:44.578Z,58.98
2017-11-24T01:15:44.474Z,58.51
2017-11-24T01:16:44.473Z,58.41
2017-11-24T01:17:44.468Z,58.13
2017-11-24T01:18:44.465Z,58.03
2017-11-24T01:19:44.463Z,58.06
2017-11-24T01:20:44.459Z,58.16
2017-11-24T01:21:44.454Z,57.87
2017-11-24T01:22:44.455Z,57.87
2017-11-24T01:23:44.449Z,57.78
2017-11-24T01:24:44.445Z,57.78
2017-11-24T01:25:44.442Z,57.59
2017-11-24T01:26:44.439Z,58.13
2017-11-24T01:27:44.436Z,58.35
2017-11-24T01:28:44.432Z,57.75
2017-11-24T01:29:44.429Z,57.68
2017-11-24T01:30:44.425Z,57.78
2017-11-24T01:31:44.423Z,57.68
2017-11-24T01:32:44.420Z,58.35
2017-11-24T01:33:44.416Z,58.35
2017-11-24T01:34:44.413Z,58.25
2017-11-24T01:35:44.411Z,58.16
2017-11-24T01:36:44.406Z,58.16
2017-11-24T01:37:44.402Z,58.25
2017-11-24T01:38:44.400Z,58.06
2017-11-24T01:39:44.396Z,58.35
2017-11-24T01:40:44.393Z,57.97
2017-11-24T01:41:44.403Z,58.32
2017-11-24T01:42:44.387Z,58.22
2017-11-24T01:43:44.384Z,58.32
2017-11-24T01:44:44.381Z,58.32
2017-11-24T01:45:44.377Z,58.61
2017-11-24T01:46:44.375Z,58.32
2017-11-24T01:47:44.372Z,58.32
2017-11-24T01:48:44.369Z,58.35
2017-11-24T01:49:44.364Z,58.25
2017-11-24T01:50:44.361Z,58.13
2017-11-24T01:51:44.366Z,58.25
2017-11-24T01:52:44.356Z,58.35
2017-11-24T01:53:44.351Z,58.22
2017-11-24T01:54:44.349Z,58.32
2017-11-24T01:55:44.345Z,58.13
2017-11-24T01:56:44.342Z,58.35
2017-11-24T01:57:44.339Z,57.65
2017-11-24T01:58:44.335Z,57.84
2017-11-24T01:59:44.338Z,58.32
2017-11-24T02:00:44.329Z,58.22
2017-11-24T02:01:44.325Z,58.03
2017-11-24T02:02:44.322Z,58.35
2017-11-24T02:03:44.319Z,58.22
2017-11-24T02:04:44.320Z,58.22
2017-11-24T02:05:44.313Z,58.22
2017-11-24T02:06:44.309Z,58.32
2017-11-24T02:07:44.316Z,58.22
2017-11-24T02:08:44.304Z,58.22
2017-11-24T02:09:44.302Z,58.98
2017-11-24T02:10:44.297Z,59.27
2017-11-24T02:11:44.295Z,59.27
2017-11-24T02:12:44.291Z,59.36
2017-11-24T02:13:44.288Z,59.46
2017-11-24T02:14:44.284Z,59.08
2017-11-24T02:15:44.281Z,58.98
2017-11-24T02:16:44.278Z,59.55
2017-11-24T02:17:44.324Z,59.74
2017-11-24T02:18:44.270Z,59.84
2017-11-24T02:19:44.267Z,59.55
2017-11-24T02:20:44.268Z,59.65
2017-11-24T02:21:44.261Z,59.74
2017-11-24T02:22:44.256Z,59.74
2017-11-24T02:23:44.253Z,59.55
2017-11-24T02:24:44.251Z,59.55
2017-11-24T02:25:44.253Z,59.93
2017-11-24T02:26:44.244Z,60.03
2017-11-24T02:27:44.240Z,60.22
2017-11-24T02:28:44.238Z,59.93
2017-11-24T02:29:44.246Z,59.74
2017-11-24T02:30:44.231Z,59.55
2017-11-24T02:31:44.227Z,59.55
2017-11-24T02:32:44.225Z,59.65
2017-11-24T02:33:44.227Z,59.74
2017-11-24T02:34:44.217Z,59.17
2017-11-24T02:35:44.215Z,59.36
2017-11-24T02:36:44.263Z,58.98
2017-11-24T02:37:44.206Z,58.22
2017-11-24T02:38:44.208Z,58.03
2017-11-24T02:39:44.202Z,58.03
2017-11-24T02:40:44.197Z,57.84
2017-11-24T02:41:44.195Z,57.84
2017-11-24T02:42:44.190Z,57.56
2017-11-24T02:43:44.186Z,57.84
2017-11-24T02:44:44.183Z,57.75
2017-11-24T02:45:44.179Z,57.75
2017-11-24T02:46:44.228Z,57.75
2017-11-24T02:47:44.174Z,57.65
2017-11-24T02:48:44.172Z,57.84
2017-11-24T02:49:44.167Z,57.09
2017-11-24T02:50:44.184Z,57.46
2017-11-24T02:51:44.159Z,57.37
2017-11-24T02:52:44.164Z,57.28
2017-11-24T02:53:44.153Z,57.84
2017-11-24T02:54:44.152Z,58.32
2017-11-24T02:55:44.145Z,58.13
2017-11-24T02:56:44.147Z,59.17
2017-11-24T02:57:44.139Z,58.22
2017-11-24T02:58:44.135Z,58.51
2017-11-24T02:59:44.132Z,58.89
2017-11-24T03:00:44.129Z,58.22
2017-11-24T03:01:44.125Z,58.22
2017-11-24T03:02:44.122Z,58.32
2017-11-24T03:03:44.118Z,57.94
2017-11-24T03:04:44.115Z,58.22
2017-11-24T03:05:44.110Z,58.03
2017-11-24T03:06:44.108Z,57.84
2017-11-24T03:07:44.103Z,57.56
2017-11-24T03:08:44.102Z,57.75
2017-11-24T03:09:44.096Z,57.28
2017-11-24T03:10:44.094Z,57.37
2017-11-24T03:11:44.090Z,57.65
2017-11-24T03:12:44.088Z,57.65
2017-11-24T03:13:44.083Z,57.75
2017-11-24T03:14:44.079Z,57.46
2017-11-24T03:15:44.078Z,57.94
2017-11-24T03:16:44.075Z,57.75
2017-11-24T03:17:44.068Z,57.65
2017-11-24T03:18:44.066Z,57.75
2017-11-24T03:19:44.064Z,57.46
2017-11-24T03:20:44.059Z,57.28
2017-11-24T03:21:44.056Z,57.37
2017-11-24T03:22:44.052Z,57.56
2017-11-24T03:23:44.055Z,57.65
2017-11-24T03:24:44.050Z,57.37
2017-11-24T03:25:44.041Z,57.75
2017-11-24T03:26:44.039Z,57.75
2017-11-24T03:27:44.036Z,57.56
2017-11-24T03:28:44.033Z,58.41
2017-11-24T03:29:44.080Z,58.32
2017-11-24T03:30:44.027Z,58.51
2017-11-24T03:31:44.032Z,59.17
2017-11-24T03:32:44.018Z,59.93
2017-11-24T03:33:44.014Z,59.93
2017-11-24T03:34:44.011Z,59.74
2017-11-24T03:35:44.008Z,59.74
2017-11-24T03:36:44.003Z,59.36
2017-11-24T03:37:44.002Z,58.98
2017-11-24T03:38:43.997Z,59.84
2017-11-24T03:39:43.993Z,59.55
2017-11-24T03:40:43.990Z,59.46
2017-11-24T03:41:43.990Z,59.27
2017-11-24T03:42:43.983Z,59.17
2017-11-24T03:43:43.979Z,58.98
2017-11-24T03:44:43.976Z,59.24
2017-11-24T03:45:43.973Z,59.27
2017-11-24T03:46:43.969Z,59.93
2017-11-24T03:47:43.965Z,59.27
2017-11-24T03:48:43.962Z,58.80
2017-11-24T03:49:43.957Z,59.27
2017-11-24T03:50:43.955Z,59.17
2017-11-24T03:51:43.950Z,59.14
2017-11-24T03:52:43.947Z,59.36
2017-11-24T03:53:43.943Z,59.93
2017-11-24T03:54:43.939Z,59.17
2017-11-24T03:55:43.936Z,58.98
2017-11-24T03:56:43.934Z,58.98
2017-11-24T03:57:43.928Z,59.17
2017-11-24T03:58:43.928Z,58.80
2017-11-24T03:59:43.922Z,59.17
2017-11-24T04:00:43.917Z,59.24
2017-11-24T04:01:43.914Z,59.33
2017-11-24T04:02:43.910Z,60.00
2017-11-24T04:03:43.907Z,60.47
2017-11-24T04:04:43.903Z,60.28
2017-11-24T04:05:43.900Z,60.28
2017-11-24T04:06:43.895Z,60.47
2017-11-24T04:07:43.893Z,59.81
2017-11-24T04:08:43.888Z,59.52
2017-11-24T04:09:43.883Z,59.52
2017-11-24T04:10:43.881Z,59.62
2017-11-24T04:11:43.878Z,59.43
2017-11-24T04:12:43.874Z,59.14
2017-11-24T04:13:43.868Z,58.86
2017-11-24T04:14:43.865Z,59.36
2017-11-24T04:15:43.861Z,58.98
2017-11-24T04:16:43.859Z,58.13
2017-11-24T04:17:43.853Z,58.13
2017-11-24T04:18:43.849Z,58.32
2017-11-24T04:19:43.848Z,58.32
2017-11-24T04:20:43.842Z,58.32
2017-11-24T04:21:43.838Z,57.65
2017-11-24T04:22:43.836Z,57.84
2017-11-24T04:23:43.832Z,57.65
2017-11-24T04:24:43.827Z,57.84
2017-11-24T04:25:43.825Z,57.56
2017-11-24T04:26:43.820Z,57.65
2017-11-24T04:27:43.817Z,57.65
2017-11-24T04:28:43.813Z,57.65
2017-11-24T04:29:43.807Z,57.75
2017-11-24T04:30:43.804Z,57.56
2017-11-24T04:31:43.801Z,57.56
2017-11-24T04:32:43.798Z,57.46
2017-11-24T04:33:43.793Z,57.84
2017-11-24T04:34:43.791Z,57.75
2017-11-24T04:35:43.786Z,58.22
2017-11-24T04:36:43.785Z,58.13
2017-11-24T04:37:43.779Z,58.32
2017-11-24T04:38:43.776Z,58.70
2017-11-24T04:39:43.771Z,59.14
2017-11-24T04:40:43.776Z,58.61
2017-11-24T04:41:43.763Z,58.58
2017-11-24T04:42:43.760Z,59.14
2017-11-24T04:43:43.808Z,58.98
2017-11-24T04:44:43.759Z,58.86
2017-11-24T04:45:43.749Z,59.43
2017-11-24T04:46:43.746Z,59.24
2017-11-24T04:47:43.741Z,59.33
2017-11-24T04:48:43.736Z,59.05
2017-11-24T04:49:43.733Z,59.71
2017-11-24T04:50:43.743Z,59.62
2017-11-24T04:51:43.725Z,59.33
2017-11-24T04:52:43.724Z,59.62
2017-11-24T04:53:43.718Z,59.71
2017-11-24T04:54:43.715Z,60.38
2017-11-24T04:55:43.711Z,60.19
2017-11-24T04:56:43.708Z,60.47
2017-11-24T04:57:43.703Z,59.71
2017-11-24T04:58:43.699Z,60.19
2017-11-24T04:59:43.698Z,59.52
2017-11-24T05:00:43.692Z,59.43
2017-11-24T05:01:43.687Z,59.52
2017-11-24T05:02:43.684Z,59.05
2017-11-24T05:03:43.690Z,59.24
2017-11-24T05:04:43.677Z,58.86
2017-11-24T05:05:43.674Z,59.14
2017-11-24T05:06:43.669Z,58.48
2017-11-24T05:07:43.666Z,58.10
2017-11-24T05:08:43.667Z,58.61
2017-11-24T05:09:43.657Z,57.94
2017-11-24T05:10:43.654Z,58.13
2017-11-24T05:11:43.650Z,57.46
2017-11-24T05:12:43.647Z,57.75
2017-11-24T05:13:43.645Z,57.37
2017-11-24T05:14:43.662Z,57.37
2017-11-24T05:15:43.634Z,57.37
2017-11-24T05:16:43.632Z,57.37
2017-11-24T05:17:43.627Z,57.18
2017-11-24T05:18:43.624Z,56.80
2017-11-24T05:19:43.620Z,57.37
2017-11-24T05:20:43.616Z,56.70
2017-11-24T05:21:43.612Z,56.70
2017-11-24T05:22:43.609Z,56.51
2017-11-24T05:23:43.605Z,56.80
2017-11-24T05:24:43.601Z,57.09
2017-11-24T05:25:43.597Z,57.28
2017-11-24T05:26:43.594Z,57.46
2017-11-24T05:27:43.592Z,57.09
2017-11-24T05:28:43.587Z,57.65
2017-11-24T05:29:43.603Z,57.75
2017-11-24T05:30:43.580Z,57.65
2017-11-24T05:31:43.577Z,58.41
2017-11-24T05:32:43.575Z,58.03
2017-11-24T05:33:43.568Z,58.51
2017-11-24T05:34:43.565Z,58.98
2017-11-24T05:35:43.562Z,58.51
2017-11-24T05:36:43.558Z,58.41
2017-11-24T05:37:43.603Z,58.95
2017-11-24T05:38:43.550Z,58.76
2017-11-24T05:39:43.548Z,59.24
2017-11-24T05:40:43.550Z,59.24
2017-11-24T05:41:43.539Z,59.05
2017-11-24T05:42:43.536Z,59.14
2017-11-24T05:43:43.531Z,59.43
2017-11-24T05:44:43.529Z,58.86
2017-11-24T05:45:43.530Z,58.89
2017-11-24T05:46:43.522Z,58.95
2017-11-24T05:47:43.521Z,58.67
2017-11-24T05:48:43.515Z,58.61
2017-11-24T05:49:43.509Z,58.58
2017-11-24T05:50:43.505Z,58.86
2017-11-24T05:51:43.511Z,59.24
2017-11-24T05:52:43.499Z,59.43
2017-11-24T05:53:43.502Z,59.43
2017-11-24T05:54:43.500Z,59.62
2017-11-24T05:55:43.487Z,59.43
2017-11-24T05:56:43.486Z,59.14
2017-11-24T05:57:43.480Z,59.24
2017-11-24T05:58:43.481Z,59.24
2017-11-24T05:59:43.473Z,59.33
2017-11-24T06:00:43.469Z,58.86
2017-11-24T06:01:43.465Z,58.76
2017-11-24T06:02:43.461Z,58.86
2017-11-24T06:03:43.458Z,58.29
2017-11-24T06:04:43.455Z,58.48
2017-11-24T06:05:43.452Z,58.58
2017-11-24T06:06:43.446Z,58.67
2017-11-24T06:07:43.444Z,58.86
2017-11-24T06:08:43.439Z,58.29
2017-11-24T06:09:43.434Z,58.10
2017-11-24T06:10:43.432Z,58.32
2017-11-24T06:11:43.430Z,58.48
2017-11-24T06:12:43.424Z,59.05
2017-11-24T06:13:43.420Z,58.29
2017-11-24T06:14:43.417Z,58.20
2017-11-24T06:15:43.413Z,58.10
2017-11-24T06:16:43.410Z,58.10
2017-11-24T06:17:43.405Z,58.20
2017-11-24T06:18:43.401Z,58.41
2017-11-24T06:19:43.405Z,57.72
2017-11-24T06:20:43.395Z,57.81
2017-11-24T06:21:43.395Z,57.75
2017-11-24T06:22:43.388Z,57.65
2017-11-24T06:23:43.383Z,57.56
2017-11-24T06:24:43.379Z,57.65
2017-11-24T06:25:43.375Z,57.56
2017-11-24T06:26:43.372Z,57.84
2017-11-24T06:27:43.368Z,57.65
2017-11-24T06:28:43.365Z,57.65
2017-11-24T06:29:43.360Z,57.75
2017-11-24T06:30:43.366Z,57.46
2017-11-24T06:31:43.353Z,58.13
2017-11-24T06:32:43.352Z,58.39
2017-11-24T06:33:43.345Z,58.03
2017-11-24T06:34:43.346Z,58.58
2017-11-24T06:35:43.339Z,58.76
2017-11-24T06:36:43.337Z,59.14
2017-11-24T06:37:43.330Z,59.43
2017-11-24T06:38:43.328Z,58.95
2017-11-24T06:39:43.324Z,58.86
2017-11-24T06:40:43.320Z,59.05
2017-11-24T06:41:43.316Z,59.14
2017-11-24T06:42:43.314Z,58.95
2017-11-24T06:43:43.309Z,59.05
2017-11-24T06:44:43.306Z,59.24
2017-11-24T06:45:43.302Z,59.05
2017-11-24T06:46:43.299Z,59.14
2017-11-24T06:47:43.297Z,58.86
2017-11-24T06:48:43.291Z,58.86
2017-11-24T06:49:43.287Z,58.86
2017-11-24T06:50:43.282Z,58.58
2017-11-24T06:51:43.279Z,58.29
2017-11-24T06:52:43.275Z,58.29
2017-11-24T06:53:43.271Z,57.81
2017-11-24T06:54:43.268Z,57.65
2017-11-24T06:55:43.264Z,57.46
2017-11-24T06:56:43.261Z,57.56
2017-11-24T06:57:43.255Z,56.80
2017-11-24T06:58:43.253Z,57.18
2017-11-24T06:59:43.248Z,56.51
2017-11-24T07:00:43.247Z,56.51
2017-11-24T07:01:43.241Z,56.32
2017-11-24T07:02:43.290Z,56.51
2017-11-24T07:03:43.235Z,56.04
2017-11-24T07:04:43.231Z,55.85
2017-11-24T07:05:43.227Z,55.57
2017-11-24T07:06:43.224Z,55.57
2017-11-24T07:07:43.220Z,55.66
2017-11-24T07:08:43.217Z,55.66
2017-11-24T07:09:43.212Z,55.30
2017-11-24T07:10:43.210Z,54.93
2017-11-24T07:11:43.205Z,54.17
2017-11-24T07:12:43.206Z,53.78
2017-11-24T07:13:43.199Z,53.43
2017-11-24T07:14:43.196Z,53.15
2017-11-24T07:15:43.193Z,52.67
2017-11-24T07:16:43.195Z,52.48
2017-11-24T07:17:43.188Z,51.37
2017-11-24T07:18:43.185Z,50.60
2017-11-24T07:19:43.183Z,49.77
2017-11-24T07:20:43.181Z,49.11
2017-11-24T07:21:43.177Z,48.18
2017-11-24T07:22:43.177Z,47.52
2017-11-24T07:23:43.177Z,47.23
2017-11-24T07:24:43.174Z,47.04
2017-11-24T07:25:43.174Z,47.13
2017-11-24T07:26:43.175Z,47.32
2017-11-24T07:27:43.172Z,48.18
2017-11-24T07:28:43.173Z,47.23
2017-11-24T07:29:43.221Z,46.66
2017-11-24T07:30:43.174Z,47.06
2017-11-24T07:31:43.173Z,45.44
2017-11-24T07:32:43.173Z,44.80
2017-11-24T07:33:43.172Z,44.42
2017-11-24T07:34:43.173Z,43.75
2017-11-24T07:35:43.175Z,43.10
2017-11-24T07:36:43.176Z,42.93
2017-11-24T07:37:43.175Z,41.98
2017-11-24T07:38:43.177Z,40.95
2017-11-24T07:39:43.177Z,39.81
2017-11-24T07:40:43.179Z,40.00
2017-11-24T07:41:43.182Z,39.61
2017-11-24T07:42:43.181Z,39.81
2017-11-24T07:43:43.185Z,40.17
2017-11-24T07:44:43.188Z,40.55
2017-11-24T07:45:43.189Z,41.22
2017-11-24T07:46:43.192Z,42.05
2017-11-24T07:47:43.194Z,42.82
2017-11-24T07:48:43.197Z,43.49
2017-11-24T07:49:43.198Z,43.58
2017-11-24T07:50:43.201Z,43.01
2017-11-24T07:51:43.202Z,43.58
2017-11-24T07:52:43.205Z,43.46
2017-11-24T07:53:43.207Z,44.23
2017-11-24T07:54:43.210Z,44.42
2017-11-24T07:55:43.212Z,44.42
2017-11-24T07:56:43.215Z,44.32
2017-11-24T07:57:43.217Z,44.51
2017-11-24T07:58:43.217Z,44.96
2017-11-24T07:59:43.220Z,44.87
2017-11-24T08:00:43.223Z,44.68
2017-11-24T08:01:43.224Z,44.78
2017-11-24T08:02:43.226Z,45.25
2017-11-24T08:03:43.227Z,45.63
2017-11-24T08:04:43.230Z,45.83
2017-11-24T08:05:43.230Z,46.01
2017-11-24T08:06:43.238Z,46.30
2017-11-24T08:07:43.233Z,46.47
2017-11-24T08:08:43.234Z,46.47
2017-11-24T08:09:43.235Z,46.94
2017-11-24T08:10:43.237Z,46.97
2017-11-24T08:11:43.237Z,45.92
2017-11-24T08:12:43.248Z,46.30
2017-11-24T08:13:43.236Z,45.63
2017-11-24T08:14:43.238Z,45.54
2017-11-24T08:15:43.239Z,45.44
2017-11-24T08:16:43.241Z,44.51
2017-11-24T08:17:43.240Z,44.89
2017-11-24T08:18:43.242Z,44.89
2017-11-24T08:19:43.243Z,44.51
2017-11-24T08:20:43.245Z,44.70
2017-11-24T08:21:43.245Z,44.59
2017-11-24T08:22:43.246Z,44.87
2017-11-24T08:23:43.253Z,44.96
2017-11-24T08:24:43.248Z,45.25
2017-11-24T08:25:43.250Z,45.35
2017-11-24T08:26:43.250Z,45.63
2017-11-24T08:27:43.252Z,45.54
2017-11-24T08:28:43.251Z,45.83
2017-11-24T08:29:43.251Z,45.44
2017-11-24T08:30:43.252Z,45.73
2017-11-24T08:31:43.253Z,45.63
2017-11-24T08:32:43.269Z,44.78
2017-11-24T08:33:43.254Z,44.99
2017-11-24T08:34:43.254Z,44.80
2017-11-24T08:35:43.255Z,44.51
2017-11-24T08:36:43.256Z,44.99
2017-11-24T08:37:43.254Z,44.89
2017-11-24T08:38:43.256Z,44.42
2017-11-24T08:39:43.256Z,44.23
2017-11-24T08:40:43.257Z,44.32
2017-11-24T08:41:43.257Z,44.99
2017-11-24T08:42:43.258Z,44.32
2017-11-24T08:43:43.286Z,44.70
2017-11-24T08:44:43.258Z,45.18
2017-11-24T08:45:43.269Z,44.42
2017-11-24T08:46:43.260Z,44.13
2017-11-24T08:47:43.260Z,44.13
2017-11-24T08:48:43.260Z,43.65
2017-11-24T08:49:43.259Z,43.65
2017-11-24T08:50:43.259Z,43.01
2017-11-24T08:51:43.262Z,42.91
2017-11-24T08:52:43.260Z,42.72
2017-11-24T08:53:43.261Z,42.72
2017-11-24T08:54:43.262Z,41.86
2017-11-24T08:55:43.264Z,42.34
2017-11-24T08:56:43.264Z,42.24
2017-11-24T08:57:43.263Z,42.82
2017-11-24T08:58:43.265Z,42.53
2017-11-24T08:59:43.266Z,42.34
2017-11-24T09:00:43.266Z,42.34
2017-11-24T09:01:43.273Z,42.34
2017-11-24T09:02:43.275Z,42.34
2017-11-24T09:03:43.269Z,42.34
2017-11-24T09:04:43.270Z,42.24
2017-11-24T09:05:43.268Z,42.08
2017-11-24T09:06:43.272Z,42.27
2017-11-24T09:07:43.271Z,41.60
2017-11-24T09:08:43.272Z,41.41
2017-11-24T09:09:43.272Z,40.64
2017-11-24T09:10:43.274Z,40.37
2017-11-24T09:11:43.274Z,39.90
2017-11-24T09:12:43.277Z,39.42
2017-11-24T09:13:43.276Z,39.35
2017-11-24T09:14:43.278Z,38.78
2017-11-24T09:15:43.282Z,39.15
2017-11-24T09:16:43.280Z,38.79
2017-11-24T09:17:43.281Z,37.74
2017-11-24T09:18:43.288Z,37.17
2017-11-24T09:19:43.284Z,37.09
2017-11-24T09:20:43.286Z,37.38
2017-11-24T09:21:43.287Z,37.19
2017-11-24T09:22:43.288Z,37.46
2017-11-24T09:23:43.290Z,37.74
2017-11-24T09:24:43.293Z,37.26
2017-11-24T09:25:43.297Z,37.74
2017-11-24T09:26:43.295Z,37.17
2017-11-24T09:27:43.297Z,36.31
2017-11-24T09:28:43.299Z,35.85
2017-11-24T09:29:43.301Z,35.85
2017-11-24T09:30:43.303Z,35.75
2017-11-24T09:31:43.310Z,35.66
2017-11-24T09:32:43.308Z,35.94
2017-11-24T09:33:43.310Z,35.75
2017-11-24T09:34:43.313Z,35.94
2017-11-24T09:35:43.315Z,35.28
2017-11-24T09:36:43.319Z,35.68
2017-11-24T09:37:43.320Z,35.77
2017-11-24T09:38:43.323Z,35.49
2017-11-24T09:39:43.327Z,35.96
2017-11-24T09:40:43.330Z,36.15
2017-11-24T09:41:43.332Z,36.06
2017-11-24T09:42:43.337Z,35.31
2017-11-24T09:43:43.341Z,34.06
2017-11-24T09:44:43.344Z,34.06
2017-11-24T09:45:43.348Z,33.89
2017-11-24T09:46:43.351Z,33.22
2017-11-24T09:47:43.356Z,32.84
2017-11-24T09:48:43.361Z,33.24
2017-11-24T09:49:43.365Z,33.35
2017-11-24T09:50:43.368Z,32.39
2017-11-24T09:51:43.372Z,31.23
2017-11-24T09:52:43.379Z,32.76
2017-11-24T09:53:43.381Z,33.12
2017-11-24T09:54:43.437Z,33.59
2017-11-24T09:55:43.391Z,33.89
2017-11-24T09:56:43.396Z,33.80
2017-11-24T09:57:43.400Z,32.67
2017-11-24T09:58:43.409Z,33.04
2017-11-24T09:59:43.510Z,32.20
2017-11-24T10:00:43.416Z,31.72
2017-11-24T10:01:43.419Z,31.35
2017-11-24T10:02:43.422Z,30.47
2017-11-24T10:03:43.430Z,30.09
2017-11-24T10:04:43.436Z,30.08
2017-11-24T10:05:43.446Z,30.75
2017-11-24T10:06:43.445Z,30.47
2017-11-24T10:07:43.450Z,30.29
2017-11-24T10:08:43.456Z,29.90
2017-11-24T10:09:43.462Z,29.44
2017-11-24T10:10:43.468Z,28.88
2017-11-24T10:11:43.472Z,28.39
2017-11-24T10:12:43.479Z,27.93
2017-11-24T10:13:43.485Z,28.41
2017-11-24T10:14:43.490Z,28.52
2017-11-24T10:15:43.502Z,27.06
2017-11-24T10:16:43.503Z,27.17
2017-11-24T10:17:43.510Z,27.27
2017-11-24T10:18:43.517Z,27.37
2017-11-24T10:19:43.525Z,27.08
2017-11-24T10:20:43.531Z,27.17
2017-11-24T10:21:43.539Z,26.51
2017-11-24T10:22:43.547Z,26.04
2017-11-24T10:23:43.555Z,26.13
2017-11-24T10:24:43.563Z,25.76
2017-11-24T10:25:43.571Z,24.99
2017-11-24T10:26:43.604Z,25.18
2017-11-24T10:27:43.589Z,25.68
2017-11-24T10:28:43.598Z,25.29
2017-11-24T10:29:43.605Z,24.34
2017-11-24T10:30:43.615Z,24.63
2017-11-24T10:31:43.626Z,24.34
2017-11-24T10:32:43.636Z,24.81
2017-11-24T10:33:43.642Z,24.80
2017-11-24T10:34:43.651Z,24.51
2017-11-24T10:35:43.667Z,24.81
2017-11-24T10:36:43.669Z,24.41
2017-11-24T10:37:43.677Z,25.84
2017-11-24T10:38:43.687Z,25.46
2017-11-24T10:39:43.695Z,25.65
2017-11-24T10:40:43.705Z,25.36
2017-11-24T10:41:43.712Z,25.09
2017-11-24T10:42:43.719Z,23.55
2017-11-24T10:43:43.731Z,23.36
2017-11-24T10:44:43.739Z,23.93
2017-11-24T10:45:43.745Z,23.26
2017-11-24T10:46:43.755Z,23.07
2017-11-24T10:47:43.770Z,23.44
2017-11-24T10:48:43.770Z,24.49
2017-11-24T10:49:43.784Z,24.68
2017-11-24T10:50:43.786Z,25.93
2017-11-24T10:51:43.800Z,25.64
2017-11-24T10:52:43.801Z,25.53
2017-11-24T10:53:43.813Z,25.92
2017-11-24T10:54:43.814Z,25.71
2017-11-24T10:55:43.827Z,25.61
2017-11-24T10:56:43.828Z,25.61
2017-11-24T10:57:43.841Z,25.42
2017-11-24T10:58:43.840Z,25.52
2017-11-24T10:59:43.853Z,26.76
2017-11-24T11:00:43.855Z,27.15
2017-11-24T11:01:43.868Z,26.46
2017-11-24T11:02:43.916Z,27.33
2017-11-24T11:03:43.879Z,28.28
2017-11-24T11:04:43.878Z,28.08
2017-11-24T11:05:43.888Z,28.19
2017-11-24T11:06:43.897Z,28.75
2017-11-24T11:07:43.902Z,28.09
2017-11-24T11:08:43.901Z,29.15
2017-11-24T11:09:43.955Z,27.61
2017-11-24T11:10:43.917Z,27.71
2017-11-24T11:11:43.918Z,28.19
2017-11-24T11:12:43.924Z,28.48
2017-11-24T11:13:43.930Z,28.96
2017-11-24T11:14:43.934Z,28.67
2017-11-24T11:15:43.944Z,28.19
2017-11-24T11:16:43.946Z,27.44
2017-11-24T11:17:43.983Z,27.34
2017-11-24T11:18:43.956Z,27.25
2017-11-24T11:19:43.963Z,28.99
2017-11-24T11:20:43.976Z,27.26
2017-11-24T11:21:43.980Z,26.30
2017-11-24T11:22:43.981Z,27.55
2017-11-24T11:23:43.987Z,27.06
2017-11-24T11:24:43.993Z,27.93
2017-11-24T11:25:44.000Z,28.22
2017-11-24T11:26:44.004Z,28.70
2017-11-24T11:27:44.016Z,28.22
2017-11-24T11:28:44.019Z,28.89
2017-11-24T11:29:44.023Z,28.99
2017-11-24T11:30:44.029Z,30.04
2017-11-24T11:31:44.037Z,29.94
2017-11-24T11:32:44.041Z,29.08
2017-11-24T11:33:44.047Z,29.17
2017-11-24T11:34:44.053Z,29.64
2017-11-24T11:35:44.061Z,29.74
2017-11-24T11:36:44.065Z,28.97
2017-11-24T11:37:44.070Z,29.45
2017-11-24T11:38:44.077Z,29.16
2017-11-24T11:39:44.085Z,28.78
2017-11-24T11:40:44.091Z,29.16
2017-11-24T11:41:44.096Z,28.20
2017-11-24T11:42:44.102Z,27.34
2017-11-24T11:43:44.109Z,27.53
2017-11-24T11:44:44.115Z,26.39
2017-11-24T11:45:44.122Z,25.15
2017-11-24T11:46:44.126Z,25.62
2017-11-24T11:47:44.132Z,24.77
2017-11-24T11:48:44.140Z,24.20
2017-11-24T11:49:44.146Z,26.12
2017-11-24T11:50:44.153Z,27.27
2017-11-24T11:51:44.159Z,28.33
2017-11-24T11:52:44.166Z,29.38
2017-11-24T11:53:44.172Z,29.66
2017-11-24T11:54:44.478Z,30.52
2017-11-24T11:55:44.187Z,31.20
2017-11-24T11:56:44.192Z,30.33
2017-11-24T11:57:44.197Z,30.43
2017-11-24T11:58:44.206Z,32.06
2017-11-24T11:59:44.261Z,32.92
2017-11-24T12:00:44.223Z,33.69
2017-11-24T12:01:44.224Z,36.07
2017-11-24T12:02:44.230Z,37.13
2017-11-24T12:03:44.237Z,38.16
2017-11-24T12:04:44.243Z,37.78
2017-11-24T12:05:44.249Z,38.26
2017-11-24T12:06:44.254Z,39.22
2017-11-24T12:07:44.261Z,39.03
2017-11-24T12:08:44.268Z,40.37
2017-11-24T12:09:44.273Z,39.22
2017-11-24T12:10:44.278Z,41.42
2017-11-24T12:11:44.303Z,41.61
2017-11-24T12:12:44.292Z,40.94
2017-11-24T12:13:44.297Z,40.75
2017-11-24T12:14:44.303Z,40.87
2017-11-24T12:15:44.306Z,40.67
2017-11-24T12:16:44.315Z,40.10
2017-11-24T12:17:44.320Z,39.79
2017-11-24T12:18:44.325Z,40.44
2017-11-24T12:19:44.384Z,41.21
2017-11-24T12:20:44.339Z,40.92
2017-11-24T12:21:44.343Z,40.81
2017-11-24T12:22:44.349Z,41.57
2017-11-24T12:23:44.355Z,42.72
2017-11-24T12:24:44.360Z,42.82
2017-11-24T12:25:44.365Z,43.68
2017-11-24T12:26:44.369Z,43.20
2017-11-24T12:27:44.384Z,44.26
2017-11-24T12:28:44.381Z,43.77
2017-11-24T12:29:44.386Z,44.09
2017-11-24T12:30:44.390Z,43.41
2017-11-24T12:31:44.396Z,43.63
2017-11-24T12:32:44.401Z,43.24
2017-11-24T12:33:44.404Z,42.19
2017-11-24T12:34:44.411Z,42.57
2017-11-24T12:35:44.416Z,41.61
2017-11-24T12:36:44.420Z,42.17
2017-11-24T12:37:44.427Z,42.55
2017-11-24T12:38:44.431Z,42.55
2017-11-24T12:39:44.437Z,42.65
2017-11-24T12:40:44.443Z,42.74
2017-11-24T12:41:44.446Z,43.90
2017-11-24T12:42:44.453Z,43.23
2017-11-24T12:43:44.458Z,43.80
2017-11-24T12:44:44.463Z,46.48
2017-11-24T12:45:44.467Z,45.04
2017-11-24T12:46:44.473Z,42.94
2017-11-24T12:47:44.478Z,42.36
2017-11-24T12:48:44.484Z,41.78
2017-11-24T12:49:44.487Z,41.50
2017-11-24T12:50:44.494Z,42.36
2017-11-24T12:51:44.498Z,41.88
2017-11-24T12:52:44.504Z,41.60